sensor_id;sensor_type;location;lat;lon;timestamp;pressure;altitude;pressure_sealevel;temperature;humidity
22582;BME280;47125;48.542;9.052;2023-10-09T00:06:30;96644.38;;;18.58;nan
22582;BME280;47125;48.542;9.052;2023-10-09T00:16:40;96634.63;;;18.37;nan
22582;BME280;47125;48.542;9.052;2023-10-09T00:26:48;96626.50;;;18.42;nan
22582;BME280;47125;48.542;9.052;2023-10-09T00:36:53;96623.25;;;18.45;nan
22582;BME280;47125;48.542;9.052;2023-10-09T00:46:56;96601.63;;;18.20;nan
22582;BME280;47125;48.542;9.052;2023-10-09T00:57:10;96598.13;;;18.20;nan
22582;BME280;47125;48.542;9.052;2023-10-09T01:07:15;96591.06;;;17.98;nan
22582;BME280;47125;48.542;9.052;2023-10-09T01:17:23;96581.63;;;18.01;nan
22582;BME280;47125;48.542;9.052;2023-10-09T01:27:39;96581.06;;;18.04;nan
22582;BME280;47125;48.542;9.052;2023-10-09T01:37:43;96574.84;;;18.18;nan
22582;BME280;47125;48.542;9.052;2023-10-09T01:47:52;96564.03;;;17.88;nan
22582;BME280;47125;48.542;9.052;2023-10-09T01:57:55;96557.53;;;18.14;nan
22582;BME280;47125;48.542;9.052;2023-10-09T02:08:01;96547.84;;;17.93;nan
22582;BME280;47125;48.542;9.052;2023-10-09T02:18:05;96543.22;;;17.79;nan
22582;BME280;47125;48.542;9.052;2023-10-09T02:28:32;96545.91;;;17.94;nan
22582;BME280;47125;48.542;9.052;2023-10-09T02:38:35;96539.44;;;17.95;nan
22582;BME280;47125;48.542;9.052;2023-10-09T02:48:44;96538.63;;;17.94;nan
22582;BME280;47125;48.542;9.052;2023-10-09T02:58:51;96523.78;;;17.72;nan
22582;BME280;47125;48.542;9.052;2023-10-09T03:08:56;96531.34;;;17.75;nan
22582;BME280;47125;48.542;9.052;2023-10-09T03:18:58;96522.97;;;17.71;nan
22582;BME280;47125;48.542;9.052;2023-10-09T03:29:02;96514.03;;;17.55;nan
22582;BME280;47125;48.542;9.052;2023-10-09T03:39:08;96513.78;;;17.77;nan
22582;BME280;47125;48.542;9.052;2023-10-09T03:49:26;96514.88;;;17.96;nan
22582;BME280;47125;48.542;9.052;2023-10-09T03:59:30;96516.75;;;17.96;nan
22582;BME280;47125;48.542;9.052;2023-10-09T04:09:35;96502.97;;;17.87;nan
22582;BME280;47125;48.542;9.052;2023-10-09T04:19:41;96503.22;;;17.76;nan
22582;BME280;47125;48.542;9.052;2023-10-09T04:29:51;96506.22;;;17.89;nan
22582;BME280;47125;48.542;9.052;2023-10-09T04:39:55;96511.88;;;17.88;nan
22582;BME280;47125;48.542;9.052;2023-10-09T04:50:14;96506.75;;;17.81;nan
22582;BME280;47125;48.542;9.052;2023-10-09T05:00:37;96505.69;;;17.87;nan
22582;BME280;47125;48.542;9.052;2023-10-09T05:11:01;96514.03;;;17.76;nan
22582;BME280;47125;48.542;9.052;2023-10-09T05:21:36;96520.50;;;17.65;nan
22582;BME280;47125;48.542;9.052;2023-10-09T05:31:47;96528.09;;;17.68;nan
22582;BME280;47125;48.542;9.052;2023-10-09T05:41:58;96533.19;;;17.64;nan
22582;BME280;47125;48.542;9.052;2023-10-09T05:52:10;96542.06;;;17.49;nan
22582;BME280;47125;48.542;9.052;2023-10-09T06:02:27;96543.47;;;17.62;nan
22582;BME280;47125;48.542;9.052;2023-10-09T06:13:01;96544.84;;;17.85;nan
22582;BME280;47125;48.542;9.052;2023-10-09T06:23:06;96565.38;;;17.86;nan
22582;BME280;47125;48.542;9.052;2023-10-09T06:33:19;96572.69;;;17.90;nan
22582;BME280;47125;48.542;9.052;2023-10-09T06:43:30;96569.72;;;17.87;nan
22582;BME280;47125;48.542;9.052;2023-10-09T06:53:39;96574.03;;;17.83;nan
22582;BME280;47125;48.542;9.052;2023-10-09T07:03:58;96572.41;;;17.97;nan
22582;BME280;47125;48.542;9.052;2023-10-09T07:14:14;96588.09;;;18.15;nan
22582;BME280;47125;48.542;9.052;2023-10-09T07:24:43;96590.53;;;18.27;50.74
22582;BME280;47125;48.542;9.052;2023-10-09T07:34:51;96584.31;;;18.31;50.53
22582;BME280;47125;48.542;9.052;2023-10-09T07:45:00;96585.09;;;18.42;50.68
22582;BME280;47125;48.542;9.052;2023-10-09T07:55:13;96596.22;;;18.55;50.73
22582;BME280;47125;48.542;9.052;2023-10-09T08:05:29;96589.75;;;18.56;50.54
22582;BME280;47125;48.542;9.052;2023-10-09T08:15:35;96590.78;;;18.70;50.67
22582;BME280;47125;48.542;9.052;2023-10-09T08:25:59;96593.47;;;18.86;50.49
22582;BME280;47125;48.542;9.052;2023-10-09T08:36:40;96607.44;;;19.18;50.32
22582;BME280;47125;48.542;9.052;2023-10-09T08:46:52;96587.59;;;19.43;50.52
22582;BME280;47125;48.542;9.052;2023-10-09T08:56:56;96595.63;;;19.63;50.41
22582;BME280;47125;48.542;9.052;2023-10-09T09:07:01;96599.56;;;19.80;50.32
22582;BME280;47125;48.542;9.052;2023-10-09T09:17:03;96592.88;;;20.07;49.25
22582;BME280;47125;48.542;9.052;2023-10-09T09:27:08;96605.75;;;20.25;48.73
22582;BME280;47125;48.542;9.052;2023-10-09T09:37:19;96625.78;;;20.39;49.12
22582;BME280;47125;48.542;9.052;2023-10-09T09:47:23;96628.63;;;20.58;49.05
22582;BME280;47125;48.542;9.052;2023-10-09T09:57:28;96633.53;;;20.79;48.83
22582;BME280;47125;48.542;9.052;2023-10-09T10:07:32;96634.38;;;21.04;48.68
22582;BME280;47125;48.542;9.052;2023-10-09T10:28:21;96628.81;;;21.85;46.15
22582;BME280;47125;48.542;9.052;2023-10-09T10:38:39;96624.66;;;21.92;46.40
22582;BME280;47125;48.542;9.052;2023-10-09T10:48:52;96618.03;;;22.17;45.57
22582;BME280;47125;48.542;9.052;2023-10-09T10:59:01;96625.41;;;22.17;45.65
22582;BME280;47125;48.542;9.052;2023-10-09T11:09:15;96613.72;;;22.16;45.96
22582;BME280;47125;48.542;9.052;2023-10-09T11:19:23;96617.75;;;22.19;45.65
22582;BME280;47125;48.542;9.052;2023-10-09T11:29:34;96614.88;;;22.29;45.25
22582;BME280;47125;48.542;9.052;2023-10-09T11:40:03;96626.31;;;22.44;44.22
22582;BME280;47125;48.542;9.052;2023-10-09T11:50:39;96610.88;;;22.40;45.12
22582;BME280;47125;48.542;9.052;2023-10-09T12:00:45;96603.47;;;22.27;44.78
22582;BME280;47125;48.542;9.052;2023-10-09T12:10:49;96579.56;;;22.24;44.63
22582;BME280;47125;48.542;9.052;2023-10-09T12:20:56;96570.22;;;22.11;45.83
22582;BME280;47125;48.542;9.052;2023-10-09T12:31:06;96571.28;;;22.15;45.77
22582;BME280;47125;48.542;9.052;2023-10-09T12:41:09;96540.13;;;22.53;45.32
22582;BME280;47125;48.542;9.052;2023-10-09T12:51:22;96538.81;;;22.97;43.37
22582;BME280;47125;48.542;9.052;2023-10-09T13:01:31;96526.28;;;23.23;44.23
22582;BME280;47125;48.542;9.052;2023-10-09T13:11:40;96507.41;;;24.12;40.97
22582;BME280;47125;48.542;9.052;2023-10-09T13:21:44;96520.28;;;24.20;40.37
22582;BME280;47125;48.542;9.052;2023-10-09T13:31:47;96520.81;;;24.53;40.02
22582;BME280;47125;48.542;9.052;2023-10-09T13:41:52;96529.13;;;24.79;38.18
22582;BME280;47125;48.542;9.052;2023-10-09T13:52:02;96529.94;;;24.79;38.62
22582;BME280;47125;48.542;9.052;2023-10-09T14:02:04;96525.84;;;24.59;31.68
22582;BME280;47125;48.542;9.052;2023-10-09T14:12:13;96507.31;;;24.48;32.38
22582;BME280;47125;48.542;9.052;2023-10-09T14:22:17;96510.38;;;24.24;31.67
22582;BME280;47125;48.542;9.052;2023-10-09T14:32:21;96493.47;;;24.00;32.29
22582;BME280;47125;48.542;9.052;2023-10-09T14:42:29;96475.38;;;23.82;33.94
22582;BME280;47125;48.542;9.052;2023-10-09T14:52:33;96465.06;;;23.79;35.96
22582;BME280;47125;48.542;9.052;2023-10-09T15:02:40;96467.91;;;23.74;35.89
22582;BME280;47125;48.542;9.052;2023-10-09T15:12:44;96481.53;;;23.74;37.47
22582;BME280;47125;48.542;9.052;2023-10-09T15:22:48;96478.69;;;23.56;39.11
22582;BME280;47125;48.542;9.052;2023-10-09T15:32:52;96486.59;;;23.44;38.65
22582;BME280;47125;48.542;9.052;2023-10-09T15:42:57;96481.56;;;23.24;39.31
22582;BME280;47125;48.542;9.052;2023-10-09T15:53:01;96475.00;;;23.12;39.62
22582;BME280;47125;48.542;9.052;2023-10-09T16:03:04;96477.84;;;22.93;40.19
22582;BME280;47125;48.542;9.052;2023-10-09T16:13:12;96473.72;;;22.82;40.68
22582;BME280;47125;48.542;9.052;2023-10-09T16:23:15;96485.22;;;22.65;41.53
22582;BME280;47125;48.542;9.052;2023-10-09T16:33:21;96494.59;;;22.59;42.00
22582;BME280;47125;48.542;9.052;2023-10-09T16:43:25;96492.59;;;22.32;42.94
22582;BME280;47125;48.542;9.052;2023-10-09T16:53:29;96488.44;;;22.21;43.47
22582;BME280;47125;48.542;9.052;2023-10-09T17:03:32;96488.22;;;22.04;43.38
22582;BME280;47125;48.542;9.052;2023-10-09T17:13:37;96490.72;;;22.01;44.83
22582;BME280;47125;48.542;9.052;2023-10-09T17:23:45;96488.47;;;21.89;43.93
22582;BME280;47125;48.542;9.052;2023-10-09T17:33:49;96484.19;;;21.83;45.76
22582;BME280;47125;48.542;9.052;2023-10-09T17:43:55;96481.19;;;21.66;44.70
22582;BME280;47125;48.542;9.052;2023-10-09T17:54:00;96496.56;;;21.57;47.00
22582;BME280;47125;48.542;9.052;2023-10-09T18:04:03;96515.34;;;21.34;47.96
22582;BME280;47125;48.542;9.052;2023-10-09T18:14:07;96525.47;;;21.29;48.72
22582;BME280;47125;48.542;9.052;2023-10-09T18:24:14;96516.59;;;21.23;47.04
22582;BME280;47125;48.542;9.052;2023-10-09T18:34:23;96521.84;;;21.15;47.08
22582;BME280;47125;48.542;9.052;2023-10-09T18:44:32;96501.63;;;21.02;47.53
22582;BME280;47125;48.542;9.052;2023-10-09T18:54:35;96501.25;;;20.85;48.79
22582;BME280;47125;48.542;9.052;2023-10-09T19:04:38;96486.69;;;20.76;49.51
22582;BME280;47125;48.542;9.052;2023-10-09T19:14:42;96496.63;;;20.85;50.15
22582;BME280;47125;48.542;9.052;2023-10-09T19:24:44;96486.44;;;20.77;49.19
22582;BME280;47125;48.542;9.052;2023-10-09T19:34:49;96493.34;;;20.65;49.77
22582;BME280;47125;48.542;9.052;2023-10-09T19:44:53;96493.91;;;20.67;50.97
22582;BME280;47125;48.542;9.052;2023-10-09T19:54:57;96499.50;;;20.52;50.47
22582;BME280;47125;48.542;9.052;2023-10-09T20:04:59;96514.78;;;20.43;50.66
22582;BME280;47125;48.542;9.052;2023-10-09T20:15:03;96511.81;;;20.39;50.67
22582;BME280;47125;48.542;9.052;2023-10-09T20:25:07;96530.81;;;20.39;50.97
22582;BME280;47125;48.542;9.052;2023-10-09T20:35:15;96531.84;;;20.43;50.91
22582;BME280;47125;48.542;9.052;2023-10-09T20:45:18;96529.34;;;20.52;50.79
22582;BME280;47125;48.542;9.052;2023-10-09T20:55:24;96541.66;;;20.39;50.90
22582;BME280;47125;48.542;9.052;2023-10-09T21:05:27;96540.16;;;20.23;51.53
22582;BME280;47125;48.542;9.052;2023-10-09T21:15:31;96553.09;;;20.36;51.47
22582;BME280;47125;48.542;9.052;2023-10-09T21:25:36;96555.91;;;20.21;51.86
22582;BME280;47125;48.542;9.052;2023-10-09T21:35:40;96551.06;;;20.13;52.37
22582;BME280;47125;48.542;9.052;2023-10-09T21:45:44;96559.69;;;19.86;52.81
22582;BME280;47125;48.542;9.052;2023-10-09T21:55:48;96555.38;;;19.85;52.76
22582;BME280;47125;48.542;9.052;2023-10-09T22:05:50;96556.91;;;19.96;52.63
22582;BME280;47125;48.542;9.052;2023-10-09T22:15:55;96555.56;;;19.94;53.00
22582;BME280;47125;48.542;9.052;2023-10-09T22:25:59;96557.78;;;19.92;52.75
22582;BME280;47125;48.542;9.052;2023-10-09T22:36:04;96561.66;;;19.75;53.15
22582;BME280;47125;48.542;9.052;2023-10-09T22:46:11;96568.72;;;19.71;53.62
22582;BME280;47125;48.542;9.052;2023-10-09T22:56:16;96561.81;;;19.55;54.39
22582;BME280;47125;48.542;9.052;2023-10-09T23:06:22;96574.84;;;19.48;54.17
22582;BME280;47125;48.542;9.052;2023-10-09T23:16:36;96576.50;;;19.39;54.53
22582;BME280;47125;48.542;9.052;2023-10-09T23:26:50;96577.59;;;19.33;54.55
22582;BME280;47125;48.542;9.052;2023-10-09T23:36:56;96570.91;;;19.15;54.70
22582;BME280;47125;48.542;9.052;2023-10-09T23:47:00;96574.69;;;19.19;54.16
22582;BME280;47125;48.542;9.052;2023-10-09T23:57:11;96569.28;;;19.09;54.01
